createdAt,value
2023-03-22T00:00:17.151Z,73.60
2023-03-22T00:01:21.956Z,73.20
2023-03-22T00:02:26.772Z,75.43
2023-03-22T00:03:29.590Z,71.90
2023-03-22T00:04:32.189Z,71.95
2023-03-22T00:05:34.973Z,69.47
2023-03-22T00:06:37.024Z,71.30
2023-03-22T00:07:41.348Z,69.45
2023-03-22T00:08:43.604Z,73.10
2023-03-22T00:09:51.007Z,72.72
2023-03-22T00:10:52.835Z,72.35
2023-03-22T00:11:56.955Z,68.25
2023-03-22T00:12:59.785Z,71.72
2023-03-22T00:14:02.594Z,64.40
2023-03-22T00:15:05.023Z,68.50
2023-03-22T00:16:09.524Z,64.85
2023-03-22T00:17:11.696Z,67.30
2023-03-22T00:18:14.578Z,63.83
2023-03-22T00:19:17.417Z,61.50
2023-03-22T00:20:23.577Z,62.45
2023-03-22T00:21:26.462Z,62.58
2023-03-22T00:22:28.451Z,60.35
2023-03-22T00:23:31.301Z,61.20
2023-03-22T00:24:33.115Z,61.65
2023-03-22T00:25:36.418Z,61.10
2023-03-22T00:26:38.292Z,64.15
2023-03-22T00:27:43.328Z,61.58
2023-03-22T00:28:45.642Z,67.10
2023-03-22T00:29:48.407Z,67.78
2023-03-22T00:30:52.654Z,67.80
2023-03-22T00:31:56.045Z,72.43
2023-03-22T00:32:57.945Z,70.15
2023-03-22T00:34:01.433Z,69.15
2023-03-22T00:35:03.758Z,80.88
2023-03-22T00:36:09.266Z,90.65
2023-03-22T00:37:11.079Z,96.22
2023-03-22T00:38:14.022Z,89.60
2023-03-22T00:39:17.922Z,115.25
2023-03-22T00:40:19.855Z,103.55
2023-03-22T00:41:23.802Z,77.32
2023-03-22T00:42:25.649Z,68.95
2023-03-22T00:43:29.778Z,87.65
2023-03-22T00:44:31.937Z,61.92
2023-03-22T00:45:36.269Z,72.13
2023-03-22T00:46:39.102Z,94.43
2023-03-22T00:47:41.096Z,115.88
2023-03-22T00:48:43.922Z,123.00
2023-03-22T00:49:45.861Z,94.95
2023-03-22T00:50:48.828Z,115.28
2023-03-22T00:51:50.821Z,91.30
2023-03-22T00:52:53.658Z,113.80
2023-03-22T00:53:56.812Z,90.53
2023-03-22T00:54:59.842Z,70.95
2023-03-22T00:56:01.735Z,112.32
2023-03-22T00:57:12.960Z,100.00
2023-03-22T00:58:14.941Z,111.93
2023-03-22T00:59:19.047Z,159.13
2023-03-22T01:00:21.560Z,106.22
2023-03-22T01:01:24.547Z,141.88
2023-03-22T01:02:29.671Z,142.63
2023-03-22T01:03:33.314Z,87.38
2023-03-22T01:04:35.719Z,132.57
2023-03-22T01:05:40.507Z,149.82
2023-03-22T01:06:42.711Z,128.00
2023-03-22T01:07:45.826Z,92.55
2023-03-22T01:08:50.719Z,86.95
2023-03-22T01:09:53.629Z,88.53
2023-03-22T01:10:55.566Z,86.28
2023-03-22T01:11:59.220Z,84.53
2023-03-22T01:13:01.147Z,68.75
2023-03-22T01:14:04.148Z,102.78
2023-03-22T01:15:08.527Z,93.07
2023-03-22T01:16:12.693Z,104.10
2023-03-22T01:17:14.973Z,78.25
2023-03-22T01:18:17.855Z,90.15
2023-03-22T01:19:20.140Z,100.95
2023-03-22T01:20:23.091Z,89.32
2023-03-22T01:21:25.055Z,85.00
2023-03-22T01:22:28.416Z,65.88
2023-03-22T01:23:30.551Z,75.25
2023-03-22T01:24:33.504Z,71.95
2023-03-22T01:25:35.624Z,79.50
2023-03-22T01:26:40.087Z,50.92
2023-03-22T01:27:41.948Z,91.90
2023-03-22T01:28:44.984Z,79.20
2023-03-22T01:29:46.866Z,73.43
2023-03-22T01:30:51.344Z,78.82
2023-03-22T01:31:53.240Z,62.45
2023-03-22T01:32:56.140Z,71.65
2023-03-22T01:33:58.967Z,72.85
2023-03-22T01:35:02.530Z,77.25
2023-03-22T01:36:06.918Z,73.35
2023-03-22T01:37:11.072Z,74.05
2023-03-22T01:38:16.858Z,81.22
2023-03-22T01:39:27.916Z,80.70
2023-03-22T01:40:33.565Z,86.40
2023-03-22T01:41:37.554Z,84.10
2023-03-22T01:42:46.662Z,96.93
2023-03-22T01:44:09.077Z,107.50
2023-03-22T01:45:32.536Z,104.85
2023-03-22T01:46:36.995Z,109.43
2023-03-22T01:47:39.595Z,103.57
2023-03-22T01:48:46.636Z,111.50
2023-03-22T01:49:50.201Z,60.65
2023-03-22T01:51:03.282Z,80.95
2023-03-22T01:52:12.364Z,73.55
2023-03-22T01:53:31.923Z,74.45
2023-03-22T01:54:35.956Z,95.15
2023-03-22T01:55:49.706Z,75.30
2023-03-22T01:57:00.373Z,123.20
2023-03-22T01:58:10.649Z,78.70
2023-03-22T01:59:21.957Z,146.93
2023-03-22T02:00:42.217Z,86.60
2023-03-22T02:02:19.157Z,71.65
2023-03-22T02:03:43.352Z,67.65
2023-03-22T02:04:50.889Z,71.97
2023-03-22T02:05:53.606Z,85.07
2023-03-22T02:06:59.867Z,77.03
2023-03-22T02:08:06.484Z,68.13
2023-03-22T02:09:26.128Z,54.90
2023-03-22T02:10:28.597Z,91.03
2023-03-22T02:11:41.559Z,112.85
2023-03-22T02:13:07.501Z,119.88
2023-03-22T02:14:32.668Z,95.00
2023-03-22T02:16:10.928Z,109.32
2023-03-22T02:17:30.950Z,76.25
2023-03-22T02:18:47.862Z,48.88
2023-03-22T02:20:19.275Z,95.68
2023-03-22T02:21:39.131Z,76.65
2023-03-22T02:23:01.767Z,57.70
2023-03-22T02:24:43.907Z,82.03
2023-03-22T02:26:03.665Z,82.03
2023-03-22T02:27:28.981Z,81.65
2023-03-22T02:28:38.863Z,54.70
2023-03-22T02:29:45.284Z,49.63
2023-03-22T02:31:16.412Z,50.70
2023-03-22T02:32:41.290Z,52.20
2023-03-22T02:34:06.170Z,51.35
2023-03-22T02:35:56.715Z,38.70
2023-03-22T02:37:27.036Z,60.50
2023-03-22T02:40:01.734Z,58.83
2023-03-22T02:41:10.864Z,54.70
2023-03-22T02:42:35.752Z,44.38
2023-03-22T02:43:46.155Z,63.20
2023-03-22T02:44:56.226Z,57.95
2023-03-22T02:46:04.662Z,45.65
2023-03-22T02:47:09.725Z,34.97
2023-03-22T02:48:15.572Z,36.72
2023-03-22T02:49:22.936Z,38.55
2023-03-22T02:50:28.525Z,53.78
2023-03-22T02:51:34.335Z,49.70
2023-03-22T02:52:39.251Z,63.53
2023-03-22T02:53:46.499Z,49.97
2023-03-22T02:54:51.607Z,62.13
2023-03-22T02:55:58.657Z,49.17
2023-03-22T02:57:05.616Z,50.08
2023-03-22T02:58:13.603Z,51.10
2023-03-22T02:59:17.738Z,44.03
2023-03-22T03:00:21.354Z,49.78
2023-03-22T03:01:25.909Z,49.42
2023-03-22T03:02:29.797Z,56.45
2023-03-22T03:03:32.950Z,55.58
2023-03-22T03:04:38.477Z,49.33
2023-03-22T03:05:42.985Z,53.03
2023-03-22T03:06:47.513Z,61.90
2023-03-22T03:07:53.395Z,81.25
2023-03-22T03:09:02.552Z,60.92
2023-03-22T03:10:05.723Z,74.25
2023-03-22T03:11:10.644Z,77.68
2023-03-22T03:12:14.599Z,58.67
2023-03-22T03:13:19.373Z,64.15
2023-03-22T03:14:23.476Z,63.15
2023-03-22T03:15:26.946Z,74.60
2023-03-22T03:16:34.507Z,70.13
2023-03-22T03:17:54.366Z,74.70
2023-03-22T03:18:59.994Z,74.43
2023-03-22T03:20:19.996Z,86.40
2023-03-22T03:21:30.242Z,80.13
2023-03-22T03:22:41.042Z,79.53
2023-03-22T03:23:49.504Z,83.03
2023-03-22T03:24:57.328Z,85.85
2023-03-22T03:26:02.427Z,99.63
2023-03-22T03:27:08.497Z,98.15
2023-03-22T03:28:14.689Z,104.97
2023-03-22T03:29:22.381Z,90.18
2023-03-22T03:30:27.386Z,103.43
2023-03-22T03:31:36.145Z,100.30
2023-03-22T03:32:42.531Z,96.50
2023-03-22T03:33:51.729Z,103.28
2023-03-22T03:34:57.268Z,101.55
2023-03-22T03:36:02.676Z,105.28
2023-03-22T03:37:08.211Z,121.85
2023-03-22T03:38:13.366Z,87.10
2023-03-22T03:39:16.422Z,106.72
2023-03-22T03:40:25.127Z,107.40
2023-03-22T03:41:28.511Z,107.95
2023-03-22T03:42:32.914Z,113.07
2023-03-22T03:43:34.941Z,114.18
2023-03-22T03:44:38.159Z,110.72
2023-03-22T03:45:40.294Z,95.65
2023-03-22T03:46:43.172Z,93.75
2023-03-22T03:47:47.042Z,99.68
2023-03-22T03:48:51.041Z,107.50
2023-03-22T03:49:52.781Z,109.70
2023-03-22T03:50:57.263Z,75.82
2023-03-22T03:52:00.033Z,78.15
2023-03-22T03:53:03.389Z,86.25
2023-03-22T03:54:05.432Z,87.97
2023-03-22T03:55:09.271Z,80.20
2023-03-22T03:56:11.309Z,111.20
2023-03-22T03:57:20.314Z,84.03
2023-03-22T03:58:23.555Z,75.05
2023-03-22T03:59:26.312Z,86.97
2023-03-22T04:00:29.294Z,107.70
2023-03-22T04:01:52.310Z,94.47
2023-03-22T04:02:59.779Z,90.50
2023-03-22T04:04:19.341Z,89.20
2023-03-22T04:05:24.838Z,120.53
2023-03-22T04:06:27.810Z,120.20
2023-03-22T04:07:34.883Z,110.50
2023-03-22T04:08:37.700Z,82.75
2023-03-22T04:09:40.517Z,110.57
2023-03-22T04:10:54.972Z,116.40
2023-03-22T04:11:57.690Z,105.45
2023-03-22T04:13:00.870Z,126.20
2023-03-22T04:14:04.573Z,127.30
2023-03-22T04:15:08.579Z,118.43
2023-03-22T04:16:10.558Z,123.63
2023-03-22T04:17:14.068Z,113.97
2023-03-22T04:18:15.816Z,108.43
2023-03-22T04:19:19.115Z,93.72
2023-03-22T04:20:21.465Z,95.32
2023-03-22T04:21:24.232Z,85.80
2023-03-22T04:22:34.640Z,76.45
2023-03-22T04:23:38.393Z,106.43
2023-03-22T04:24:41.265Z,110.88
2023-03-22T04:25:50.534Z,107.13
2023-03-22T04:27:03.419Z,93.07
2023-03-22T04:28:26.263Z,70.57
2023-03-22T04:29:32.150Z,69.20
2023-03-22T04:30:51.501Z,59.60
2023-03-22T04:32:11.687Z,55.63
2023-03-22T04:33:17.777Z,58.53
2023-03-22T04:34:43.543Z,52.75
2023-03-22T04:35:50.507Z,57.03
2023-03-22T04:36:54.369Z,61.92
2023-03-22T04:38:02.548Z,64.93
2023-03-22T04:39:08.717Z,63.60
2023-03-22T04:40:17.275Z,56.25
2023-03-22T04:41:46.550Z,50.22
2023-03-22T04:42:48.852Z,51.95
2023-03-22T04:44:03.445Z,50.65
2023-03-22T04:45:09.658Z,48.08
2023-03-22T04:46:14.258Z,47.88
2023-03-22T04:47:23.641Z,49.38
2023-03-22T04:48:28.360Z,54.63
2023-03-22T04:49:34.403Z,54.63
2023-03-22T04:50:36.353Z,52.47
2023-03-22T04:51:40.681Z,52.08
2023-03-22T04:53:06.550Z,49.00
2023-03-22T04:54:08.445Z,50.40
2023-03-22T04:55:14.445Z,50.17
2023-03-22T04:56:18.286Z,51.03
2023-03-22T04:57:22.595Z,54.90
2023-03-22T04:58:24.842Z,52.50
2023-03-22T04:59:28.421Z,56.75
2023-03-22T05:00:32.578Z,54.25
2023-03-22T05:01:37.577Z,56.85
2023-03-22T05:02:46.629Z,55.47
2023-03-22T05:03:59.417Z,55.22
2023-03-22T05:05:02.050Z,53.17
2023-03-22T05:06:12.914Z,54.88
2023-03-22T05:07:23.281Z,58.03
2023-03-22T05:08:31.884Z,56.90
2023-03-22T05:09:33.779Z,60.70
2023-03-22T05:10:40.962Z,61.05
2023-03-22T05:11:43.100Z,58.13
2023-03-22T05:13:01.781Z,60.45
2023-03-22T05:14:07.729Z,57.35
2023-03-22T05:15:12.118Z,56.67
2023-03-22T05:16:16.548Z,59.70
2023-03-22T05:17:26.434Z,57.15
2023-03-22T05:18:32.760Z,55.65
2023-03-22T05:19:36.404Z,53.05
2023-03-22T05:20:38.852Z,54.55
2023-03-22T05:21:58.216Z,56.75
2023-03-22T05:23:10.915Z,59.47
2023-03-22T05:24:15.653Z,54.80
2023-03-22T05:25:21.588Z,50.88
2023-03-22T05:26:26.444Z,49.50
2023-03-22T05:27:31.738Z,52.38
2023-03-22T05:28:53.718Z,51.55
2023-03-22T05:30:21.724Z,49.22
2023-03-22T05:31:35.460Z,48.75
2023-03-22T05:32:59.968Z,53.20
2023-03-22T05:34:03.673Z,51.42
2023-03-22T05:35:08.740Z,50.13
2023-03-22T05:36:16.804Z,49.60
2023-03-22T05:37:38.291Z,51.90
2023-03-22T05:38:41.325Z,49.47
2023-03-22T05:39:44.168Z,49.08
2023-03-22T05:40:46.362Z,48.83
2023-03-22T05:41:49.220Z,49.33
2023-03-22T05:42:51.146Z,48.58
2023-03-22T05:43:58.589Z,45.53
2023-03-22T05:45:00.440Z,46.25
2023-03-22T05:46:06.322Z,45.35
2023-03-22T05:47:22.112Z,46.75
2023-03-22T05:48:33.636Z,44.00
2023-03-22T05:49:36.487Z,45.80
2023-03-22T05:50:40.939Z,45.17
2023-03-22T05:51:43.639Z,44.80
2023-03-22T05:52:49.067Z,42.42
2023-03-22T05:54:12.343Z,41.90
2023-03-22T05:55:23.415Z,42.90
2023-03-22T05:56:31.267Z,43.47
2023-03-22T05:57:41.184Z,42.17
2023-03-22T05:58:44.874Z,42.45
2023-03-22T05:59:53.793Z,40.70
2023-03-22T06:01:06.410Z,41.47
2023-03-22T06:02:24.944Z,40.50
2023-03-22T06:03:28.539Z,42.22
2023-03-22T06:04:52.067Z,42.03
2023-03-22T06:05:54.839Z,40.20
2023-03-22T06:07:08.540Z,40.35
2023-03-22T06:08:20.364Z,40.17
2023-03-22T06:09:23.185Z,39.13
2023-03-22T06:10:28.738Z,39.80
2023-03-22T06:11:33.921Z,38.83
2023-03-22T06:12:36.687Z,37.92
2023-03-22T06:13:47.997Z,37.15
2023-03-22T06:14:50.779Z,36.13
2023-03-22T06:16:14.226Z,37.42
2023-03-22T06:17:18.143Z,36.92
2023-03-22T06:18:25.421Z,36.85
2023-03-22T06:19:35.290Z,35.17
2023-03-22T06:20:41.627Z,35.53
2023-03-22T06:21:50.424Z,35.88
2023-03-22T06:22:54.103Z,36.05
2023-03-22T06:23:56.567Z,36.47
2023-03-22T06:25:01.184Z,35.67
2023-03-22T06:26:11.807Z,35.35
2023-03-22T06:27:17.807Z,34.15
2023-03-22T06:28:21.004Z,36.60
2023-03-22T06:29:28.730Z,34.75
2023-03-22T06:30:34.847Z,34.90
2023-03-22T06:32:00.584Z,34.33
2023-03-22T06:33:05.151Z,34.10
2023-03-22T06:34:12.311Z,35.55
2023-03-22T06:35:17.010Z,34.97
2023-03-22T06:36:22.130Z,34.60
2023-03-22T06:37:40.534Z,34.63
2023-03-22T06:38:43.083Z,34.42
2023-03-22T06:39:46.175Z,33.53
2023-03-22T06:40:48.534Z,34.55
2023-03-22T06:41:52.231Z,31.77
2023-03-22T06:42:54.531Z,33.83
2023-03-22T06:43:59.532Z,31.88
2023-03-22T06:45:16.934Z,32.05
2023-03-22T06:46:21.521Z,31.17
2023-03-22T06:47:33.743Z,31.90
2023-03-22T06:48:36.149Z,30.85
2023-03-22T06:49:47.985Z,30.73
2023-03-22T06:50:56.361Z,30.48
2023-03-22T06:52:06.154Z,30.02
2023-03-22T06:53:10.288Z,29.77
2023-03-22T06:54:13.254Z,30.88
2023-03-22T06:55:16.622Z,30.02
2023-03-22T06:56:18.475Z,31.40
2023-03-22T06:57:26.441Z,30.73
2023-03-22T06:58:28.316Z,28.52
2023-03-22T06:59:31.824Z,29.90
2023-03-22T07:00:34.331Z,32.35
2023-03-22T07:01:37.198Z,30.25
2023-03-22T07:02:39.379Z,31.30
2023-03-22T07:03:52.776Z,33.58
2023-03-22T07:04:58.654Z,32.67
2023-03-22T07:06:02.436Z,31.27
2023-03-22T07:07:07.151Z,30.88
2023-03-22T07:08:10.937Z,32.15
2023-03-22T07:09:18.708Z,30.98
2023-03-22T07:10:23.219Z,31.60
2023-03-22T07:11:26.869Z,30.10
2023-03-22T07:12:35.035Z,35.55
2023-03-22T07:13:45.136Z,33.03
2023-03-22T07:14:54.481Z,31.05
2023-03-22T07:16:32.503Z,31.00
2023-03-22T07:17:37.025Z,28.13
2023-03-22T07:18:40.651Z,31.13
2023-03-22T07:19:43.095Z,28.85
2023-03-22T07:20:48.818Z,30.45
2023-03-22T07:21:51.203Z,31.13
2023-03-22T07:22:54.436Z,30.63
2023-03-22T07:23:58.528Z,31.90
2023-03-22T07:25:08.286Z,30.45
2023-03-22T07:26:10.809Z,31.67
2023-03-22T07:27:18.153Z,32.40
2023-03-22T07:28:20.325Z,30.10
2023-03-22T07:29:23.084Z,31.08
2023-03-22T07:30:25.259Z,30.45
2023-03-22T07:31:29.129Z,30.27
2023-03-22T07:32:36.133Z,29.70
2023-03-22T07:33:42.381Z,29.77
2023-03-22T07:34:44.909Z,29.48
2023-03-22T07:35:53.167Z,28.15
2023-03-22T07:36:57.015Z,28.40
2023-03-22T07:38:00.982Z,26.58
2023-03-22T07:39:07.410Z,26.05
2023-03-22T07:40:15.633Z,25.73
2023-03-22T07:41:19.415Z,26.48
2023-03-22T07:42:42.214Z,26.25
2023-03-22T07:44:07.749Z,28.00
2023-03-22T07:45:36.737Z,23.80
2023-03-22T07:46:58.307Z,22.88
2023-03-22T07:48:06.840Z,23.38
2023-03-22T07:49:28.286Z,21.98
2023-03-22T07:50:38.960Z,21.40
2023-03-22T07:51:43.838Z,23.02
2023-03-22T07:52:47.642Z,22.98
2023-03-22T07:53:50.436Z,21.45
2023-03-22T07:54:53.318Z,23.52
2023-03-22T07:55:56.224Z,19.45
2023-03-22T07:56:58.996Z,22.00
2023-03-22T07:58:01.257Z,21.10
2023-03-22T07:59:04.497Z,19.85
2023-03-22T08:00:10.368Z,20.02
2023-03-22T08:01:32.021Z,19.35
2023-03-22T08:02:50.628Z,20.20
2023-03-22T08:04:11.027Z,20.60
2023-03-22T08:05:22.586Z,20.13
2023-03-22T08:06:32.984Z,19.67
2023-03-22T08:07:37.551Z,20.73
2023-03-22T08:08:41.440Z,20.33
2023-03-22T08:09:43.885Z,19.58
2023-03-22T08:10:49.986Z,19.27
2023-03-22T08:11:52.917Z,20.10
2023-03-22T08:12:54.689Z,19.75
2023-03-22T08:14:01.193Z,19.90
2023-03-22T08:15:05.749Z,21.08
2023-03-22T08:16:09.990Z,20.98
2023-03-22T08:17:12.243Z,19.65
2023-03-22T08:18:15.498Z,19.50
2023-03-22T08:19:19.824Z,19.25
2023-03-22T08:20:26.805Z,19.50
2023-03-22T08:21:32.796Z,20.35
2023-03-22T08:22:36.532Z,17.48
2023-03-22T08:23:59.331Z,19.08
2023-03-22T08:25:23.461Z,17.98
2023-03-22T08:26:28.084Z,17.40
2023-03-22T08:27:32.842Z,17.98
2023-03-22T08:28:36.507Z,18.63
2023-03-22T08:29:38.386Z,16.88
2023-03-22T08:30:41.601Z,17.67
2023-03-22T08:31:44.802Z,16.30
2023-03-22T08:32:47.606Z,16.88
2023-03-22T08:33:50.455Z,17.58
2023-03-22T08:34:52.877Z,16.73
2023-03-22T08:36:06.472Z,17.23
2023-03-22T08:37:11.635Z,16.88
2023-03-22T08:38:15.581Z,16.60
2023-03-22T08:39:25.439Z,17.92
2023-03-22T08:40:48.719Z,16.42
2023-03-22T08:41:54.772Z,16.35
2023-03-22T08:43:00.676Z,15.40
2023-03-22T08:44:04.486Z,16.25
2023-03-22T08:45:11.221Z,16.80
2023-03-22T08:46:20.484Z,15.38
2023-03-22T08:47:24.085Z,15.85
2023-03-22T08:48:32.117Z,15.82
2023-03-22T08:49:42.080Z,14.73
2023-03-22T08:50:58.539Z,14.55
2023-03-22T08:52:11.490Z,15.43
2023-03-22T08:53:32.925Z,15.05
2023-03-22T08:54:57.365Z,15.70
2023-03-22T08:56:20.151Z,14.55
2023-03-22T08:57:38.729Z,15.90
2023-03-22T08:58:58.319Z,15.20
2023-03-22T09:00:25.072Z,14.95
2023-03-22T09:01:40.971Z,14.23
2023-03-22T09:02:46.215Z,13.15
2023-03-22T09:03:49.214Z,14.60
2023-03-22T09:04:51.458Z,13.90
2023-03-22T09:05:55.436Z,12.63
2023-03-22T09:06:57.491Z,14.43
2023-03-22T09:08:06.218Z,14.70
2023-03-22T09:09:17.960Z,13.73
2023-03-22T09:10:24.707Z,14.07
2023-03-22T09:11:31.321Z,15.13
2023-03-22T09:12:33.335Z,13.55
2023-03-22T09:13:36.384Z,13.80
2023-03-22T09:14:38.743Z,13.77
2023-03-22T09:15:42.703Z,13.20
2023-03-22T09:16:57.859Z,12.43
2023-03-22T09:18:02.544Z,12.82
2023-03-22T09:19:06.667Z,13.70
2023-03-22T09:20:13.043Z,13.98
2023-03-22T09:21:18.484Z,14.73
2023-03-22T09:22:26.358Z,13.63
2023-03-22T09:23:30.383Z,13.50
2023-03-22T09:24:32.545Z,14.43
2023-03-22T09:25:40.902Z,12.82
2023-03-22T09:26:45.572Z,13.98
2023-03-22T09:27:50.821Z,13.40
2023-03-22T09:28:53.335Z,14.15
2023-03-22T09:29:56.324Z,13.75
2023-03-22T09:31:00.915Z,14.38
2023-03-22T09:32:06.817Z,14.30
2023-03-22T09:33:11.346Z,13.80
2023-03-22T09:34:17.834Z,12.68
2023-03-22T09:35:22.168Z,12.85
2023-03-22T09:36:40.651Z,12.95
2023-03-22T09:37:43.542Z,12.85
2023-03-22T09:38:47.807Z,13.60
2023-03-22T09:39:50.441Z,14.20
2023-03-22T09:41:00.835Z,12.77
2023-03-22T09:42:11.880Z,12.65
2023-03-22T09:43:16.570Z,12.43
2023-03-22T09:44:23.332Z,13.25
2023-03-22T09:45:38.138Z,12.05
2023-03-22T09:46:47.464Z,12.57
2023-03-22T09:47:54.853Z,12.95
2023-03-22T09:48:58.229Z,12.68
2023-03-22T09:50:06.934Z,11.55
2023-03-22T09:51:28.303Z,12.32
2023-03-22T09:52:33.068Z,11.45
2023-03-22T09:53:36.367Z,10.18
2023-03-22T09:54:40.841Z,10.18
2023-03-22T09:55:46.429Z,10.57
2023-03-22T09:56:55.861Z,10.23
2023-03-22T09:58:08.062Z,9.05
2023-03-22T09:59:36.664Z,9.50
2023-03-22T10:00:43.891Z,9.40
2023-03-22T10:01:52.191Z,9.15
2023-03-22T10:02:59.917Z,10.20
2023-03-22T10:04:11.767Z,11.38
2023-03-22T10:05:21.240Z,10.52
2023-03-22T10:06:26.041Z,10.48
2023-03-22T10:07:32.492Z,9.52
2023-03-22T10:08:46.113Z,10.07
2023-03-22T10:09:54.895Z,10.18
2023-03-22T10:10:59.255Z,10.32
2023-03-22T10:12:10.677Z,9.20
2023-03-22T10:13:24.684Z,9.68
2023-03-22T10:14:30.872Z,9.67
2023-03-22T10:15:37.288Z,9.23
2023-03-22T10:16:40.316Z,9.40
2023-03-22T10:17:49.018Z,9.98
2023-03-22T10:18:53.577Z,9.10
2023-03-22T10:19:59.875Z,14.07
2023-03-22T10:21:16.382Z,11.38
2023-03-22T10:22:25.332Z,10.48
2023-03-22T10:23:32.809Z,10.77
2023-03-22T10:24:37.009Z,11.10
2023-03-22T10:25:42.530Z,28.27
2023-03-22T10:26:47.173Z,12.13
2023-03-22T10:27:52.702Z,11.18
2023-03-22T10:29:43.329Z,10.73
2023-03-22T10:30:50.954Z,11.32
2023-03-22T10:31:55.534Z,11.43
2023-03-22T10:33:02.839Z,12.20
2023-03-22T10:34:08.362Z,11.45
2023-03-22T10:35:15.535Z,10.98
2023-03-22T10:36:20.084Z,10.35
2023-03-22T10:37:25.874Z,11.05
2023-03-22T10:38:32.206Z,11.80
2023-03-22T10:39:39.417Z,13.55
2023-03-22T10:40:52.120Z,11.07
2023-03-22T10:41:57.978Z,11.80
2023-03-22T10:44:40.995Z,12.52
2023-03-22T10:45:44.794Z,11.40
2023-03-22T10:46:50.618Z,11.30
2023-03-22T10:47:58.063Z,11.20
2023-03-22T10:49:02.194Z,11.82
2023-03-22T10:50:08.237Z,10.38
2023-03-22T10:51:19.654Z,11.50
2023-03-22T10:52:37.029Z,11.35
2023-03-22T10:53:45.496Z,12.68
2023-03-22T10:54:51.476Z,11.30
2023-03-22T10:55:55.528Z,11.73
2023-03-22T10:57:14.344Z,12.75
2023-03-22T10:58:19.641Z,12.93
2023-03-22T10:59:48.573Z,11.35
2023-03-22T11:00:59.722Z,12.57
2023-03-22T11:02:03.025Z,12.10
2023-03-22T11:03:07.595Z,12.77
2023-03-22T11:04:13.982Z,12.17
2023-03-22T11:05:23.046Z,12.60
2023-03-22T11:06:29.841Z,12.10
2023-03-22T11:07:35.580Z,11.73
2023-03-22T11:08:41.687Z,10.57
2023-03-22T11:09:44.609Z,11.47
2023-03-22T11:10:59.117Z,11.67
2023-03-22T11:12:03.147Z,12.27
2023-03-22T11:13:21.629Z,10.97
2023-03-22T11:14:31.861Z,11.53
2023-03-22T11:15:43.138Z,11.27
2023-03-22T11:16:57.284Z,12.83
2023-03-22T11:18:04.155Z,10.90
2023-03-22T11:19:08.380Z,10.97
2023-03-22T11:20:21.180Z,13.80
2023-03-22T11:21:30.903Z,11.20
2023-03-22T11:22:36.647Z,12.20
2023-03-22T11:23:43.026Z,11.43
2023-03-22T11:24:50.441Z,11.67
2023-03-22T11:25:56.788Z,12.73
2023-03-22T11:27:08.581Z,13.25
2023-03-22T11:28:18.343Z,10.43
2023-03-22T11:29:23.162Z,11.87
2023-03-22T11:30:27.052Z,12.40
2023-03-22T11:31:50.129Z,11.80
2023-03-22T11:33:03.498Z,11.47
2023-03-22T11:34:18.159Z,13.43
2023-03-22T11:35:23.398Z,12.97
2023-03-22T11:36:27.491Z,13.50
2023-03-22T11:37:40.881Z,12.77
2023-03-22T11:38:45.660Z,12.70
2023-03-22T11:40:05.135Z,12.23
2023-03-22T11:41:09.290Z,12.60
2023-03-22T11:42:20.311Z,12.77
2023-03-22T11:43:23.983Z,12.00
2023-03-22T11:44:29.679Z,12.30
2023-03-22T11:45:33.304Z,11.30
2023-03-22T11:46:38.013Z,11.80
2023-03-22T11:47:40.346Z,20.40
2023-03-22T11:48:44.668Z,12.77
2023-03-22T11:49:54.074Z,12.93
2023-03-22T11:51:06.012Z,12.23
2023-03-22T11:52:12.575Z,11.97
2023-03-22T11:53:17.468Z,12.30
2023-03-22T11:54:31.931Z,11.80
2023-03-22T11:55:35.388Z,12.10
2023-03-22T11:56:42.677Z,11.60
2023-03-22T11:57:50.261Z,11.40
2023-03-22T11:59:00.196Z,10.67
2023-03-22T12:00:11.896Z,10.90
2023-03-22T12:01:19.533Z,12.17
2023-03-22T12:02:26.463Z,11.00
2023-03-22T12:03:32.732Z,12.17
2023-03-22T12:04:39.733Z,11.60
2023-03-22T12:05:44.666Z,12.53
2023-03-22T12:06:57.789Z,12.50
2023-03-22T12:08:08.122Z,12.33
2023-03-22T12:09:23.393Z,11.13
2023-03-22T12:10:33.430Z,9.00
2023-03-22T12:11:41.775Z,9.00
2023-03-22T12:12:56.946Z,11.47
2023-03-22T12:14:06.507Z,12.40
2023-03-22T12:15:15.902Z,11.40
2023-03-22T12:16:24.322Z,10.67
2023-03-22T12:17:33.332Z,8.67
2023-03-22T12:18:43.494Z,8.27
2023-03-22T12:19:56.818Z,7.90
2023-03-22T12:21:00.981Z,11.10
2023-03-22T12:22:03.417Z,8.40
2023-03-22T12:23:13.768Z,7.93
2023-03-22T12:24:28.318Z,10.90
2023-03-22T12:25:34.978Z,7.40
2023-03-22T12:26:38.173Z,6.67
2023-03-22T12:27:50.065Z,6.43
2023-03-22T12:29:01.944Z,6.70
2023-03-22T12:30:08.726Z,6.80
2023-03-22T12:31:17.387Z,6.27
2023-03-22T12:32:25.337Z,6.40
2023-03-22T12:34:01.937Z,7.57
2023-03-22T12:35:17.229Z,6.73
2023-03-22T12:36:23.413Z,5.70
2023-03-22T12:37:30.579Z,5.67
2023-03-22T12:38:41.283Z,5.23
2023-03-22T12:39:46.769Z,4.67
2023-03-22T12:40:53.815Z,4.43
2023-03-22T12:42:00.766Z,4.70
2023-03-22T12:43:12.042Z,5.40
2023-03-22T12:44:38.009Z,5.43
2023-03-22T12:46:33.098Z,4.70
2023-03-22T12:50:33.468Z,4.53
2023-03-22T12:53:42.413Z,4.30
2023-03-22T12:55:04.845Z,4.60
2023-03-22T12:56:10.983Z,4.10
2023-03-22T12:57:14.988Z,4.90
2023-03-22T12:58:22.274Z,4.07
2023-03-22T12:59:28.949Z,4.20
2023-03-22T13:00:38.160Z,4.13
2023-03-22T13:01:48.214Z,4.20
2023-03-22T13:02:57.750Z,4.03
2023-03-22T13:04:01.399Z,8.77
2023-03-22T13:05:09.405Z,6.97
2023-03-22T13:06:36.025Z,4.30
2023-03-22T13:07:55.926Z,3.60
2023-03-22T13:09:16.149Z,3.83
2023-03-22T13:10:50.118Z,3.97
2023-03-22T13:12:27.593Z,4.70
2023-03-22T13:13:44.710Z,5.07
2023-03-22T13:15:01.393Z,3.87
2023-03-22T13:16:26.828Z,4.00
2023-03-22T13:17:40.733Z,4.30
2023-03-22T13:19:01.999Z,4.57
2023-03-22T13:20:28.276Z,4.47
2023-03-22T13:21:38.527Z,4.30
2023-03-22T13:23:12.903Z,4.47
2023-03-22T13:24:39.745Z,4.80
2023-03-22T13:26:08.539Z,4.80
2023-03-22T13:27:15.513Z,4.73
2023-03-22T13:28:37.448Z,5.30
2023-03-22T13:29:42.209Z,5.10
2023-03-22T13:30:49.450Z,4.83
2023-03-22T13:31:58.726Z,6.27
2023-03-22T13:33:14.318Z,4.40
2023-03-22T13:34:19.272Z,4.50
2023-03-22T13:35:25.505Z,5.37
2023-03-22T13:36:30.351Z,5.47
2023-03-22T13:37:35.910Z,4.97
2023-03-22T13:38:59.519Z,4.30
2023-03-22T13:40:05.950Z,4.73
2023-03-22T13:41:18.177Z,4.50
2023-03-22T13:42:27.713Z,4.23
2023-03-22T13:43:33.641Z,3.87
2023-03-22T13:44:40.722Z,3.97
2023-03-22T13:46:04.261Z,4.33
2023-03-22T13:47:10.424Z,3.90
2023-03-22T13:48:41.995Z,3.43
2023-03-22T13:49:51.479Z,6.20
2023-03-22T13:50:54.009Z,3.80
2023-03-22T13:52:00.374Z,3.40
2023-03-22T13:53:07.960Z,3.50
2023-03-22T13:54:17.934Z,3.70
2023-03-22T13:55:42.911Z,3.33
2023-03-22T13:56:53.233Z,3.83
2023-03-22T13:57:59.837Z,4.03
2023-03-22T13:59:04.971Z,4.00
2023-03-22T14:00:33.771Z,3.57
2023-03-22T14:01:39.683Z,4.10
2023-03-22T14:02:43.352Z,4.17
2023-03-22T14:03:50.545Z,7.77
2023-03-22T14:04:56.084Z,4.83
2023-03-22T14:06:05.291Z,5.47
2023-03-22T14:07:14.147Z,4.63
2023-03-22T14:08:21.846Z,4.40
2023-03-22T14:09:27.433Z,3.90
2023-03-22T14:10:37.474Z,4.00
2023-03-22T14:11:45.556Z,3.50
2023-03-22T14:12:52.687Z,4.17
2023-03-22T14:13:58.846Z,4.13
2023-03-22T14:15:04.814Z,3.33
2023-03-22T14:16:10.269Z,3.33
2023-03-22T14:17:19.229Z,3.80
2023-03-22T14:18:25.819Z,3.70
2023-03-22T14:19:32.745Z,4.20
2023-03-22T14:20:36.421Z,4.73
